createdAt,value
2024-04-06T00:01:59.281Z,17.2
2024-04-06T00:07:02.840Z,17.2
2024-04-06T00:12:07.352Z,17.2
2024-04-06T00:17:11.868Z,17.2
2024-04-06T00:22:15.431Z,17.1
2024-04-06T00:27:19.993Z,17
2024-04-06T00:42:32.660Z,17.1
2024-04-06T00:47:37.151Z,17
2024-04-06T00:52:41.631Z,17.2
2024-04-06T00:57:45.206Z,17.1
2024-04-06T01:02:49.829Z,17.3
2024-04-06T01:07:54.260Z,17
2024-04-06T01:12:57.839Z,17
2024-04-06T01:18:02.363Z,16.9
2024-04-06T01:23:06.904Z,16.7
2024-04-06T01:28:10.428Z,16.6
2024-04-06T01:33:14.987Z,16.5
2024-04-06T01:38:18.505Z,16.5
2024-04-06T01:43:23.096Z,16.5
2024-04-06T01:48:27.630Z,16.4
2024-04-06T01:53:31.164Z,16.3
2024-04-06T01:58:35.664Z,16.2
2024-04-06T02:03:40.211Z,16.3
2024-04-06T02:08:43.784Z,16.3
2024-04-06T02:13:48.317Z,16.2
2024-04-06T02:18:52.851Z,16.3
2024-04-06T02:23:57.380Z,16.4
2024-04-06T02:29:00.905Z,16.6
2024-04-06T02:34:05.431Z,16.5
2024-04-06T02:39:09.997Z,16.6
2024-04-06T02:44:13.571Z,16.4
2024-04-06T02:49:18.090Z,16.3
2024-04-06T02:54:22.597Z,16.3
2024-04-06T02:59:26.178Z,16.3
2024-04-06T03:04:30.673Z,16.2
2024-04-06T03:09:35.214Z,16.1
2024-04-06T03:14:38.762Z,16
2024-04-06T03:19:43.296Z,16.2
2024-04-06T03:24:47.822Z,16.3
2024-04-06T03:29:52.372Z,16.3
2024-04-06T03:34:55.937Z,16.4
2024-04-06T03:40:00.441Z,16.3
2024-04-06T03:55:13.103Z,16.3
2024-04-06T04:00:17.613Z,16.4
2024-04-06T04:15:30.212Z,16.3
2024-04-06T04:20:33.787Z,16.2
2024-04-06T04:25:38.274Z,16.2
2024-04-06T04:30:42.829Z,16.1
2024-04-06T04:35:47.371Z,16.2
2024-04-06T04:40:50.883Z,16.1
2024-04-06T04:45:55.425Z,16.1
2024-04-06T04:56:03.553Z,16
2024-04-06T05:01:08.073Z,16
2024-04-06T05:06:12.601Z,16
2024-04-06T05:11:16.403Z,16
2024-04-06T05:16:20.670Z,16
2024-04-06T05:21:25.212Z,16
2024-04-06T05:26:28.745Z,16.1
2024-04-06T05:36:37.852Z,16.5
2024-04-06T05:41:42.376Z,16.4
2024-04-06T05:46:45.912Z,16.6
2024-04-06T06:01:58.541Z,16.5
2024-04-06T06:07:02.071Z,16.5
2024-04-06T06:12:06.605Z,16.6
2024-04-06T06:17:11.141Z,16.6
2024-04-06T06:22:15.703Z,16.7
2024-04-06T06:27:19.228Z,16.6
2024-04-06T06:32:23.736Z,16.9
2024-04-06T06:42:33.192Z,17.3
2024-04-06T06:47:36.418Z,17.2
2024-04-06T06:52:40.910Z,17.4
2024-04-06T06:57:44.505Z,17.5
2024-04-06T07:02:49.075Z,18
2024-04-06T07:07:53.522Z,17.9
2024-04-06T07:12:57.069Z,18.3
2024-04-06T07:18:01.608Z,18.6
2024-04-06T07:23:06.163Z,18.8
2024-04-06T07:28:10.721Z,19.1
2024-04-06T07:33:14.215Z,19.2
2024-04-06T07:38:20.661Z,19.6
2024-04-06T07:43:23.307Z,20
2024-04-06T07:48:26.878Z,20.1
2024-04-06T07:53:31.372Z,20.5
2024-04-06T07:58:35.882Z,20.4
2024-04-06T08:03:39.440Z,20.3
2024-04-06T08:13:48.509Z,21
2024-04-06T08:18:52.069Z,21.5
2024-04-06T08:23:56.654Z,22
2024-04-06T08:29:01.163Z,22.2
2024-04-06T08:34:05.714Z,21.8
2024-04-06T08:39:09.268Z,22.2
2024-04-06T08:44:13.793Z,22.1
2024-04-06T08:49:18.295Z,22.5
2024-04-06T08:54:21.852Z,22.4
2024-04-06T08:59:26.416Z,23.1
2024-04-06T09:04:30.923Z,22.9
2024-04-06T09:09:34.462Z,22.8
2024-04-06T09:14:38.998Z,22.7
2024-04-06T09:19:43.568Z,22.9
2024-04-06T09:24:47.124Z,23.5
2024-04-06T09:29:51.634Z,23.2
2024-04-06T09:34:56.158Z,23.7
2024-04-06T09:40:00.734Z,23.6
2024-04-06T09:45:04.282Z,23.3
2024-04-06T09:50:08.804Z,23.4
2024-04-06T09:55:13.378Z,24.1
2024-04-06T10:00:16.910Z,24.2
2024-04-06T10:05:20.435Z,24.5
2024-04-06T10:10:24.976Z,24.6
2024-04-06T10:15:29.550Z,24.5
2024-04-06T10:20:34.052Z,25.2
2024-04-06T10:25:37.616Z,25
2024-04-06T10:35:46.691Z,24.8
2024-04-06T10:40:50.223Z,24.8
2024-04-06T10:45:54.793Z,26.1
2024-04-06T10:56:02.840Z,26.2
2024-04-06T11:01:07.701Z,26
2024-04-06T11:06:11.923Z,26.3
2024-04-06T11:11:15.500Z,25.9
2024-04-06T11:16:20.049Z,25.9
2024-04-06T11:21:24.561Z,26.8
2024-04-06T11:26:29.314Z,26.4
2024-04-06T11:31:32.640Z,26.1
2024-04-06T11:36:37.170Z,26.5
2024-04-06T11:41:41.708Z,27
2024-04-06T11:46:45.282Z,27.2
2024-04-06T11:51:49.840Z,27.1
2024-04-06T11:56:54.352Z,26.7
2024-04-06T12:01:57.895Z,27.2
2024-04-06T12:07:02.447Z,27.8
2024-04-06T12:12:06.956Z,27.5
2024-04-06T12:17:10.518Z,27.6
2024-04-06T12:22:15.129Z,27.2
2024-04-06T12:27:19.609Z,27.6
2024-04-06T12:32:24.162Z,28.1
2024-04-06T12:37:27.690Z,27.5
2024-04-06T12:42:32.202Z,27.5
2024-04-06T12:47:36.775Z,27.5
2024-04-06T12:52:40.311Z,28
2024-04-06T12:57:44.842Z,27.8
2024-04-06T13:02:49.365Z,28.1
2024-04-06T13:07:55.009Z,28.1
2024-04-06T13:12:57.506Z,27.9
2024-04-06T13:18:02.014Z,28.5
2024-04-06T13:23:05.568Z,28
2024-04-06T13:28:10.107Z,28.2
2024-04-06T13:33:14.640Z,28.9
2024-04-06T13:38:19.160Z,28
2024-04-06T13:48:27.257Z,28.2
2024-04-06T13:53:31.768Z,28.1
2024-04-06T13:58:35.317Z,28
2024-04-06T14:03:39.889Z,28.4
2024-04-06T14:13:47.984Z,28.4
2024-04-06T14:18:52.494Z,28.7
2024-04-06T14:23:56.047Z,28.8
2024-04-06T14:29:00.608Z,28.6
2024-04-06T14:34:05.172Z,28.1
2024-04-06T14:39:08.708Z,28
2024-04-06T14:49:17.756Z,29.2
2024-04-06T14:54:21.294Z,28.4
2024-04-06T14:59:25.868Z,29
2024-04-06T15:04:30.422Z,29.1
2024-04-06T15:09:33.920Z,29.2
2024-04-06T15:14:38.470Z,28.7
2024-04-06T15:19:42.987Z,28.7
2024-04-06T15:24:47.518Z,28.4
2024-04-06T15:29:51.130Z,28.5
2024-04-06T15:34:55.640Z,28.1
2024-04-06T15:40:00.213Z,28.1
2024-04-06T15:45:03.689Z,27.9
2024-04-06T16:00:16.359Z,27.8
2024-04-06T16:05:20.854Z,27.7
2024-04-06T16:10:25.408Z,27.5
2024-04-06T16:15:28.928Z,27.7
2024-04-06T16:20:33.481Z,27.7
2024-04-06T16:25:37.988Z,27.9
2024-04-06T16:30:42.577Z,27.6
2024-04-06T16:35:46.111Z,27.6
2024-04-06T16:40:50.626Z,27.3
2024-04-06T16:45:55.158Z,27.3
2024-04-06T16:50:58.752Z,27.1
2024-04-06T16:56:03.404Z,27
2024-04-06T17:01:07.791Z,26.9
2024-04-06T17:06:11.519Z,26.9
2024-04-06T17:11:15.916Z,26.8
2024-04-06T17:16:20.435Z,26.9
2024-04-06T17:21:23.984Z,26.8
2024-04-06T17:26:28.529Z,26.6
2024-04-06T17:31:33.109Z,26.6
2024-04-06T17:36:37.592Z,26.3
2024-04-06T17:41:41.152Z,26.4
2024-04-06T17:46:45.672Z,26.2
2024-04-06T17:51:50.202Z,25.9
2024-04-06T17:56:53.740Z,25.8
2024-04-06T18:07:02.833Z,25.5
2024-04-06T18:12:06.387Z,25.4
2024-04-06T18:17:11.177Z,25.3
2024-04-06T18:22:15.431Z,25.2
2024-04-06T18:27:18.997Z,25.1
2024-04-06T18:32:23.561Z,25.1
2024-04-06T18:37:27.143Z,25.1
2024-04-06T18:42:32.140Z,24.9
2024-04-06T18:47:36.174Z,24.8
2024-04-06T18:52:39.690Z,24.7
2024-04-06T18:57:44.223Z,24.7
2024-04-06T19:02:48.751Z,24.4
2024-04-06T19:12:56.850Z,23.9
2024-04-06T19:18:03.244Z,23.8
2024-04-06T19:23:05.941Z,23.5
2024-04-06T19:28:09.502Z,23.3
2024-04-06T19:33:14.058Z,23.4
2024-04-06T19:38:18.563Z,23.2
2024-04-06T19:43:22.084Z,23.2
2024-04-06T19:48:26.660Z,23.1
2024-04-06T19:53:31.144Z,22.9
2024-04-06T19:58:34.724Z,22.9
2024-04-06T20:03:39.264Z,22.7
2024-04-06T20:08:43.770Z,22.9
2024-04-06T20:13:47.434Z,22.7
2024-04-06T20:18:51.850Z,22.6
2024-04-06T20:23:56.392Z,22.8
2024-04-06T20:29:00.928Z,22.9
2024-04-06T20:34:04.484Z,22.8
2024-04-06T20:39:09.024Z,22.9
2024-04-06T20:44:13.584Z,22.9
2024-04-06T20:49:17.101Z,23
2024-04-06T20:54:23.969Z,23.1
2024-04-06T20:59:26.187Z,23.1
2024-04-06T21:04:29.746Z,23.3
2024-04-06T21:09:34.254Z,23.3
2024-04-06T21:19:42.333Z,23.5
2024-04-06T21:24:46.874Z,23.4
2024-04-06T21:29:53.210Z,23.4
2024-04-06T21:34:55.931Z,23.4
2024-04-06T21:39:59.464Z,23.3
2024-04-06T21:50:08.566Z,23.3
2024-04-06T21:55:12.075Z,23.2
2024-04-06T22:00:16.637Z,23.4
2024-04-06T22:05:21.153Z,23.4
2024-04-06T22:10:24.710Z,23.4
2024-04-06T22:15:29.255Z,23.6
2024-04-06T22:20:33.788Z,23.4
2024-04-06T22:25:37.364Z,23.2
2024-04-06T22:30:41.887Z,23.2
2024-04-06T22:35:46.401Z,23.2
2024-04-06T22:40:50.933Z,23.1
2024-04-06T22:45:54.509Z,23.1
2024-04-06T22:50:58.060Z,23.1
2024-04-06T22:56:02.598Z,23
2024-04-06T23:01:07.120Z,23.2
2024-04-06T23:06:10.667Z,23.5
2024-04-06T23:11:15.180Z,23.2
2024-04-06T23:16:19.712Z,22.9
2024-04-06T23:21:24.282Z,23.2
2024-04-06T23:26:27.855Z,23.7
2024-04-06T23:31:32.340Z,23.5
2024-04-06T23:36:36.901Z,23.6
2024-04-06T23:41:40.422Z,23.4
2024-04-06T23:51:49.556Z,23.9
